Time;durP1;ratioP1;P1;durP2;ratioP2;P2;SDS_P1;SDS_P2;PMS_P1;PMS_P2;Temp;Humidity;BMP_temperature;BMP_pressure;BME280_temperature;BME280_humidity;BME280_pressure;Samples;Min_cycle;Max_cycle;Signal;HPM_P1;HPM_P2
2021/09/06 00:01:17;;;;;;;;;;;;;;;21.01;59.05;101455.78;5118260;28;786;-51
2021/09/06 00:03:43;;;;;;;;;;;;;;;21.14;58.82;101470.91;5118005;28;739;-48
2021/09/06 00:06:08;;;;;;;;;;;;;;;;;;5118126;28;822;-51
2021/09/06 00:08:33;;;;;;;;;;;;;;;20.44;57.09;101468.22;5118173;28;925;-51
2021/09/06 00:11:03;;;;;;;;;;;;;;;19.90;54.65;101470.63;5117631;28;1913;-49
2021/09/06 00:13:28;;;;;;;;;;;;;;;19.48;51.33;101480.84;5117801;27;960;-49
2021/09/06 00:15:54;;;;;;;;;;;;;;;18.98;49.63;101466.75;5117227;27;900;-42
2021/09/06 00:18:19;;;;;;;;;;;;;;;18.62;48.72;101465.78;5118338;28;814;-52
2021/09/06 00:20:45;;;;;;;;;;;;;;;18.85;49.34;101464.50;5116589;28;1164;-50
2021/09/06 00:23:10;;;;;;;;;;;;;;;19.21;52.45;101477.53;5118136;27;793;-49
2021/09/06 00:25:36;;;;;;;;;;;;;;;19.42;55.18;101467.31;5117946;28;767;-49
2021/09/06 00:28:02;;;;;;;;;;;;;;;19.94;55.72;101477.25;5117802;28;815;-51
2021/09/06 00:30:27;;;;;;;;;;;;;;;19.92;57.81;101475.88;5117271;27;1905;-48
2021/09/06 00:32:52;;;;;;;;;;;;;;;20.28;57.92;101471.06;5099914;28;1116;-43
2021/09/06 00:35:18;;;;;;;;;;;;;;;20.46;58.53;101475.13;5117577;28;747;-52
2021/09/06 00:37:43;;;;;;;;;;;;;;;20.58;58.84;101474.81;5099070;28;1065;-49
2021/09/06 00:40:09;;;;;;;;;;;;;;;20.72;58.95;101479.72;5116493;28;1117;-50
2021/09/06 00:42:35;;;;;;;;;;;;;;;21.09;57.95;101479.22;5117241;28;752;-50
2021/09/06 00:45:00;;;;;;;;;;;;;;;20.97;58.95;101470.47;5117193;27;965;-49
2021/09/06 00:47:26;;;;;;;;;;;;;;;21.05;58.97;101472.63;5117287;27;1215;-52
2021/09/06 00:49:51;;;;;;;;;;;;;;;21.19;58.34;101467.28;5117076;28;1976;-49
2021/09/06 00:52:17;;;;;;;;;;;;;;;20.90;57.55;101481.88;5117025;28;802;-48
2021/09/06 00:54:43;;;;;;;;;;;;;;;20.12;56.17;101484.09;5117756;28;747;-45
2021/09/06 00:57:08;;;;;;;;;;;;;;;19.64;53.41;101478.06;5098967;28;847;-50
2021/09/06 00:59:34;;;;;;;;;;;;;;;19.09;51.24;101477.78;5126795;27;1001;-42
2021/09/06 01:02:00;;;;;;;;;;;;;;;18.68;48.84;101475.75;5137677;27;818;-49
2021/09/06 01:04:28;;;;;;;;;;;;;;;18.58;48.00;101478.44;5136156;27;818;-49
2021/09/06 01:07:12;;;;;;;;;;;;;;;18.60;50.57;101481.78;5136735;27;596;-46
2021/09/06 01:09:56;;;;;;;;;;;;;;;19.05;53.70;101473.94;5122135;27;1978;-47
2021/09/06 01:12:42;;;;;;;;;;;;;;;19.73;55.00;101486.63;5137087;27;819;-48
2021/09/06 01:15:08;;;;;;;;;;;;;;;19.72;57.01;101485.78;5120587;27;1011;-49
2021/09/06 01:17:38;;;;;;;;;;;;;;;20.06;57.80;101490.72;5115818;28;1228;-47
2021/09/06 01:20:04;;;;;;;;;;;;;;;20.16;58.56;101492.63;5116421;28;754;-51
2021/09/06 01:22:32;;;;;;;;;;;;;;;20.41;58.81;101491.75;5116162;28;791;-44
2021/09/06 01:25:13;;;;;;;;;;;;;;;20.64;58.61;101495.78;5116973;28;822;-45
2021/09/06 01:27:39;;;;;;;;;;;;;;;20.78;58.65;101496.00;5098036;28;1502;-50
2021/09/06 01:30:05;;;;;;;;;;;;;;;20.88;58.86;101488.78;5131369;27;1917;-49
2021/09/06 01:32:31;;;;;;;;;;;;;;;21.19;57.99;101484.69;5136455;27;1112;-49
2021/09/06 01:34:57;;;;;;;;;;;;;;;;;;5136764;27;858;-48
2021/09/06 01:37:22;;;;;;;;;;;;;;;21.08;58.86;101477.56;5137349;27;873;-47
2021/09/06 01:39:52;;;;;;;;;;;;;;;21.02;58.46;101478.72;5119590;27;1152;-50
2021/09/06 01:42:18;;;;;;;;;;;;;;;20.42;57.56;101487.03;5135445;27;1231;-50
2021/09/06 01:44:44;;;;;;;;;;;;;;;19.81;54.76;101484.16;5124193;27;984;-47
2021/09/06 01:47:14;;;;;;;;;;;;;;;19.42;51.56;101483.88;5115523;28;826;-50
2021/09/06 01:49:40;;;;;;;;;;;;;;;18.90;49.52;101480.22;5113908;28;1910;-49
2021/09/06 01:52:06;;;;;;;;;;;;;;;18.56;48.14;101480.66;5115243;28;1230;-47
2021/09/06 01:54:33;;;;;;;;;;;;;;;18.49;49.47;101485.59;5115093;27;1160;-43
2021/09/06 01:57:02;;;;;;;;;;;;;;;19.07;52.61;101483.59;5115340;27;1218;-51
2021/09/06 01:59:27;;;;;;;;;;;;;;;19.38;54.78;101486.38;5105108;28;1137;-51
2021/09/06 02:01:56;;;;;;;;;;;;;;;19.74;56.24;101485.50;5115182;28;1264;-47
2021/09/06 02:04:23;;;;;;;;;;;;;;;20.00;57.52;101486.34;5114427;28;791;-50
2021/09/06 02:06:48;;;;;;;;;;;;;;;20.25;57.94;101482.66;5116118;28;802;-50
2021/09/06 02:09:14;;;;;;;;;;;;;;;20.35;58.63;101490.09;5116009;28;1972;-47
2021/09/06 02:11:39;;;;;;;;;;;;;;;20.47;58.91;101485.06;5115706;28;767;-52
2021/09/06 02:14:09;;;;;;;;;;;;;;;20.68;58.86;101491.38;5122514;28;1213;-51
2021/09/06 02:16:36;;;;;;;;;;;;;;;21.02;57.98;101496.13;5136792;27;803;-49
2021/09/06 02:19:07;;;;;;;;;;;;;;;21.16;58.07;101492.75;5135212;28;1106;-50
2021/09/06 02:21:37;;;;;;;;;;;;;;;21.14;58.26;101494.94;5135688;28;1262;-50
2021/09/06 02:24:03;;;;;;;;;;;;;;;21.20;58.19;101491.06;5135248;28;1132;-43
2021/09/06 02:26:36;;;;;;;;;;;;;;;20.84;57.04;101505.09;5137869;27;1105;-48
2021/09/06 02:29:06;;;;;;;;;;;;;;;20.17;55.05;101497.06;5139343;27;1974;-50
2021/09/06 02:31:35;;;;;;;;;;;;;;;19.51;52.56;101489.69;5139413;27;1097;-51
2021/09/06 02:34:21;;;;;;;;;;;;;;;18.73;50.98;101492.31;5132738;27;1124;-50
2021/09/06 02:36:46;;;;;;;;;;;;;;;18.58;49.45;101484.81;5140649;27;859;-44
2021/09/06 02:39:12;;;;;;;;;;;;;;;18.62;49.84;101496.09;5139635;27;1060;-44
2021/09/06 02:41:41;;;;;;;;;;;;;;;19.05;53.11;101495.97;5138703;27;823;-51
2021/09/06 02:44:07;;;;;;;;;;;;;;;19.30;55.31;101495.19;5132732;27;965;-48
2021/09/06 02:46:33;;;;;;;;;;;;;;;19.58;57.02;101487.47;5101871;28;1044;-42
2021/09/06 02:48:59;;;;;;;;;;;;;;;19.99;57.27;101491.03;5118707;28;1913;-42
2021/09/06 02:51:24;;;;;;;;;;;;;;;20.07;58.35;101486.88;5101628;28;848;-49
2021/09/06 02:53:51;;;;;;;;;;;;;;;20.39;58.35;101493.13;5118476;27;772;-50
2021/09/06 02:56:17;;;;;;;;;;;;;;;20.54;58.53;101486.69;5118474;27;1108;-50
2021/09/06 02:58:44;;;;;;;;;;;;;;;20.84;58.15;101505.91;5122124;27;1140;-47
2021/09/06 03:01:10;;;;;;;;;;;;;;;20.94;58.46;101496.75;5138915;27;823;-49
2021/09/06 03:03:35;;;;;;;;;;;;;;;21.10;58.17;101491.94;5138852;27;1227;-48
2021/09/06 03:06:02;;;;;;;;;;;;;;;21.13;58.32;101493.31;5139368;27;1128;-46
2021/09/06 03:08:29;;;;;;;;;;;;;;;21.17;58.32;101495.22;5138969;27;1168;-45
2021/09/06 03:10:55;;;;;;;;;;;;;;;21.47;57.50;101501.63;5138326;27;1913;-46
2021/09/06 03:13:23;;;;;;;;;;;;;;;21.07;58.33;101509.13;5139578;27;964;-48
2021/09/06 03:15:48;;;;;;;;;;;;;;;20.82;56.58;101499.88;5100659;28;1149;-47
2021/09/06 03:18:20;;;;;;;;;;;;;;;20.03;54.60;101513.38;5118994;28;739;-50
2021/09/06 03:21:11;;;;;;;;;;;;;;;19.53;51.27;101506.78;5119204;28;967;-49
2021/09/06 03:23:37;;;;;;;;;;;;;;;19.19;49.22;101513.63;5119112;28;839;-46
2021/09/06 03:26:02;;;;;;;;;;;;;;;18.83;47.55;101507.19;5118811;28;767;-51
2021/09/06 03:28:32;;;;;;;;;;;;;;;18.47;47.64;101500.44;5118061;27;1258;-46
2021/09/06 03:30:57;;;;;;;;;;;;;;;18.94;51.01;101512.50;5101026;28;1986;-50
2021/09/06 03:33:23;;;;;;;;;;;;;;;19.23;53.86;101511.19;5100886;28;1156;-51
2021/09/06 03:35:51;;;;;;;;;;;;;;;19.72;55.16;101512.56;5118877;28;897;-51
2021/09/06 03:38:18;;;;;;;;;;;;;;;20.07;56.23;101511.72;5117289;28;1109;-50
2021/09/06 03:40:43;;;;;;;;;;;;;;;20.17;57.46;101514.47;5117467;28;1406;-50
2021/09/06 03:43:10;;;;;;;;;;;;;;;20.55;57.42;101507.69;5117750;27;1218;-48
2021/09/06 03:45:38;;;;;;;;;;;;;;;20.50;58.22;101511.31;5137956;27;1251;-49
2021/09/06 03:48:04;;;;;;;;;;;;;;;20.78;58.06;101517.31;5139058;27;790;-45
2021/09/06 03:50:31;;;;;;;;;;;;;;;20.73;58.88;101522.84;5136933;27;1905;-49
2021/09/06 03:52:58;;;;;;;;;;;;;;;20.62;59.37;101520.13;5146547;27;1522;-50
2021/09/06 03:55:23;;;;;;;;;;;;;;;21.05;58.23;101519.63;5138646;27;775;-52
2021/09/06 03:57:49;;;;;;;;;;;;;;;21.66;56.40;101526.69;5153632;27;910;-51
2021/09/06 04:00:17;;;;;;;;;;;;;;;21.23;57.71;101528.38;5140816;27;1396;-49
2021/09/06 04:02:46;;;;;;;;;;;;;;;20.97;58.08;101528.53;5152463;27;808;-60
2021/09/06 04:05:17;;;;;;;;;;;;;;;20.56;57.01;101525.94;5158530;27;1507;-53
2021/09/06 04:07:43;;;;;;;;;;;;;;;19.86;55.36;101523.91;5158527;27;1323;-54
2021/09/06 04:10:11;;;;;;;;;;;;;;;19.22;52.63;101520.53;5149470;27;1917;-45
2021/09/06 04:12:36;;;;;;;;;;;;;;;18.80;50.63;101520.44;5137604;27;1187;-54
2021/09/06 04:15:03;;;;;;;;;;;;;;;18.29;49.13;101531.22;5137437;27;1144;-48
2021/09/06 04:17:31;;;;;;;;;;;;;;;18.18;49.18;101530.31;5120649;27;1467;-54
2021/09/06 04:19:56;;;;;;;;;;;;;;;18.49;52.30;101535.16;5137837;27;1101;-59
2021/09/06 04:22:22;;;;;;;;;;;;;;;18.91;54.70;101535.06;5137791;27;1279;-56
2021/09/06 04:24:50;;;;;;;;;;;;;;;19.23;56.71;101538.75;5137311;27;1250;-52
2021/09/06 04:27:15;;;;;;;;;;;;;;;19.65;57.51;101546.78;5137695;27;1085;-54
2021/09/06 04:29:41;;;;;;;;;;;;;;;20.16;57.31;101545.94;5137026;27;2019;-55
2021/09/06 04:32:07;;;;;;;;;;;;;;;20.38;57.61;101550.28;5137077;27;823;-54
2021/09/06 04:34:33;;;;;;;;;;;;;;;20.51;57.92;101554.41;5137662;27;1128;-52
2021/09/06 04:36:59;;;;;;;;;;;;;;;20.55;58.51;101546.38;5137283;27;1160;-44
2021/09/06 04:39:24;;;;;;;;;;;;;;;20.74;58.52;101555.72;5137079;27;1097;-56
2021/09/06 04:41:50;;;;;;;;;;;;;;;20.83;58.49;101547.66;5137163;27;1073;-46
2021/09/06 04:44:17;;;;;;;;;;;;;;;20.71;58.97;101561.00;5136663;27;1204;-46
2021/09/06 04:46:45;;;;;;;;;;;;;;;20.93;58.50;101560.63;5137140;27;1133;-55
2021/09/06 04:49:13;;;;;;;;;;;;;;;21.24;57.31;101552.13;5119434;27;1909;-43
2021/09/06 04:51:39;;;;;;;;;;;;;;;21.47;56.45;101540.34;5136750;27;1255;-57
2021/09/06 04:54:08;;;;;;;;;;;;;;;20.51;56.34;101544.19;5136601;27;1211;-54
2021/09/06 04:56:35;;;;;;;;;;;;;;;19.97;53.41;101559.50;5136970;27;1097;-58
2021/09/06 04:59:04;;;;;;;;;;;;;;;19.39;51.00;101542.34;5136735;27;1223;-52
2021/09/06 05:01:30;;;;;;;;;;;;;;;19.13;48.76;101548.63;5136991;27;1274;-55
2021/09/06 05:03:57;;;;;;;;;;;;;;;18.64;47.89;101554.50;5137027;27;1132;-53
2021/09/06 05:06:23;;;;;;;;;;;;;;;18.49;48.53;101546.19;5137346;27;557;-43
2021/09/06 05:08:49;;;;;;;;;;;;;;;19.01;50.83;101553.56;5135798;27;1170;-56
2021/09/06 05:11:14;;;;;;;;;;;;;;;19.53;52.89;101549.00;5136767;27;1992;-47
2021/09/06 05:13:40;;;;;;;;;;;;;;;19.71;54.97;101544.03;5136293;27;1164;-55
2021/09/06 05:16:06;;;;;;;;;;;;;;;19.88;56.34;101543.75;5135990;27;826;-51
2021/09/06 05:18:32;;;;;;;;;;;;;;;20.16;56.79;101550.63;5119661;27;1010;-51
2021/09/06 05:21:00;;;;;;;;;;;;;;;20.32;57.37;101549.47;5136156;27;1105;-47
2021/09/06 05:23:25;;;;;;;;;;;;;;;20.41;57.69;101549.75;5136362;27;1356;-49
2021/09/06 05:25:53;;;;;;;;;;;;;;;20.48;58.19;101549.44;5136412;27;1348;-49
2021/09/06 05:28:21;;;;;;;;;;;;;;;20.79;57.48;101543.81;5118528;27;1101;-55
2021/09/06 05:30:48;;;;;;;;;;;;;;;20.69;58.06;101536.41;5115252;27;1925;-43
2021/09/06 05:33:13;;;;;;;;;;;;;;;20.94;57.62;101542.91;5115290;27;1147;-44
2021/09/06 05:35:39;;;;;;;;;;;;;;;20.95;57.65;101545.41;5117130;28;836;-63
2021/09/06 05:38:05;;;;;;;;;;;;;;;21.18;56.71;101543.03;5116238;28;727;-43
2021/09/06 05:40:59;;;;;;;;;;;;;;;20.96;56.16;101549.00;5128348;27;1084;-47
2021/09/06 05:43:25;;;;;;;;;;;;;;;20.28;55.10;101539.28;5125789;27;1884;-55
2021/09/06 05:45:53;;;;;;;;;;;;;;;19.72;53.80;101546.50;5131017;27;814;-52
2021/09/06 05:48:19;;;;;;;;;;;;;;;19.35;51.77;101549.50;5135407;27;1101;-47
2021/09/06 05:50:45;;;;;;;;;;;;;;;18.99;50.32;101544.75;5136666;27;1917;-55
2021/09/06 05:53:31;;;;;;;;;;;;;;;18.81;48.94;101541.34;5136498;27;1124;-54
2021/09/06 05:55:58;;;;;;;;;;;;;;;18.61;48.75;101546.78;5135753;27;1124;-54
2021/09/06 05:58:24;;;;;;;;;;;;;;;18.89;51.09;101547.50;5132986;27;996;-54
2021/09/06 06:00:50;;;;;;;;;;;;;;;19.40;53.17;101544.81;5100063;28;1251;-44
2021/09/06 06:03:17;;;;;;;;;;;;;;;19.61;55.29;101550.38;5114451;28;1275;-44
2021/09/06 06:05:44;;;;;;;;;;;;;;;19.68;57.01;101550.91;5115029;28;1133;-44
2021/09/06 06:08:10;;;;;;;;;;;;;;;20.13;56.72;101552.03;5113842;28;1214;-48
2021/09/06 06:10:36;;;;;;;;;;;;;;;20.29;57.52;101560.28;5115070;28;1913;-51
2021/09/06 06:13:05;;;;;;;;;;;;;;;20.57;57.30;101566.28;5115058;28;1017;-55
2021/09/06 06:15:31;;;;;;;;;;;;;;;20.68;57.51;101562.41;5133626;28;1132;-52
2021/09/06 06:17:56;;;;;;;;;;;;;;;20.93;57.47;101552.31;5136579;27;839;-59
2021/09/06 06:20:22;;;;;;;;;;;;;;;20.87;57.71;101564.53;5134751;28;1431;-54
2021/09/06 06:23:06;;;;;;;;;;;;;;;20.98;57.71;101566.94;5136423;28;657;-52
2021/09/06 06:25:57;;;;;;;;;;;;;;;21.09;57.54;101566.91;5135212;28;1097;-45
2021/09/06 06:28:23;;;;;;;;;;;;;;;20.64;57.64;101569.56;5133873;27;1077;-45
2021/09/06 06:30:53;;;;;;;;;;;;;;;20.18;56.49;101574.09;5097087;28;1918;-46
2021/09/06 06:33:29;;;;;;;;;;;;;;;19.74;55.14;101565.53;5112355;28;1291;-44
2021/09/06 06:36:01;;;;;;;;;;;;;;;19.55;52.95;101568.03;5116596;28;819;-57
2021/09/06 06:38:35;;;;;;;;;;;;;;;19.21;51.97;101565.75;5113802;28;1109;-53
2021/09/06 06:41:07;;;;;;;;;;;;;;;19.08;50.80;101562.44;5080924;28;1074;-48
2021/09/06 06:43:41;;;;;;;;;;;;;;;18.85;50.35;101560.13;5115816;27;973;-53
2021/09/06 06:46:11;;;;;;;;;;;;;;;18.65;50.25;101558.94;5114272;27;1242;-43
2021/09/06 06:48:36;;;;;;;;;;;;;;;18.80;51.05;101555.41;5114688;28;1097;-44
2021/09/06 06:51:03;;;;;;;;;;;;;;;19.20;53.71;101564.94;5097236;28;1921;-51
2021/09/06 06:53:32;;;;;;;;;;;;;;;19.64;55.02;101564.44;5110738;27;1439;-60
2021/09/06 06:55:59;;;;;;;;;;;;;;;19.84;56.76;101571.09;5123106;28;802;-51
2021/09/06 06:58:28;;;;;;;;;;;;;;;19.82;58.17;101567.78;5133893;27;802;-44
2021/09/06 07:00:58;;;;;;;;;;;;;;;20.15;58.13;101577.41;5114693;28;798;-56
2021/09/06 07:03:23;;;;;;;;;;;;;;;20.43;58.10;101571.56;5114229;28;1383;-48
2021/09/06 07:05:49;;;;;;;;;;;;;;;20.67;57.92;101564.31;5126102;28;759;-52
2021/09/06 07:08:16;;;;;;;;;;;;;;;20.73;58.19;101576.19;5133214;28;1330;-49
2021/09/06 07:10:44;;;;;;;;;;;;;;;21.07;57.53;101569.97;5117414;28;1913;-55
2021/09/06 07:13:10;;;;;;;;;;;;;;;20.95;58.07;101572.22;5137656;27;810;-44
2021/09/06 07:15:35;;;;;;;;;;;;;;;21.20;57.57;101579.56;5137635;27;1291;-54
2021/09/06 07:18:04;;;;;;;;;;;;;;;21.19;57.66;101573.19;5121512;27;1138;-50
2021/09/06 07:20:30;;;;;;;;;;;;;;;21.39;56.73;101576.94;5138323;27;1077;-52
2021/09/06 07:22:55;;;;;;;;;;;;;;;20.74;57.12;101583.38;5138073;27;1101;-55
2021/09/06 07:25:21;;;;;;;;;;;;;;;20.18;55.06;101576.84;5139065;27;1362;-43
2021/09/06 07:27:47;;;;;;;;;;;;;;;19.74;52.42;101571.91;5137581;27;1240;-57
2021/09/06 07:30:12;;;;;;;;;;;;;;;19.19;50.73;101566.03;5137275;27;1986;-49
2021/09/06 07:32:39;;;;;;;;;;;;;;;18.92;49.06;101574.50;5138370;27;1323;-44
2021/09/06 07:35:08;;;;;;;;;;;;;;;18.69;48.35;101584.00;5139385;27;835;-42
2021/09/06 07:37:34;;;;;;;;;;;;;;;18.90;50.32;101579.44;5137645;27;1227;-46
2021/09/06 07:39:59;;;;;;;;;;;;;;;19.28;53.63;101585.66;5138265;27;1077;-59
2021/09/06 07:42:25;;;;;;;;;;;;;;;19.66;55.24;101589.00;5137677;27;1196;-41
2021/09/06 07:44:50;;;;;;;;;;;;;;;19.81;56.49;101586.28;5137345;27;1243;-45
2021/09/06 07:47:16;;;;;;;;;;;;;;;20.11;57.03;101597.59;5138008;27;1169;-53
2021/09/06 07:49:47;;;;;;;;;;;;;;;20.17;57.65;101591.78;5137786;27;1929;-45
2021/09/06 07:52:13;;;;;;;;;;;;;;;20.39;58.14;101598.91;5137502;27;1145;-44
2021/09/06 07:54:39;;;;;;;;;;;;;;;20.42;58.66;101598.34;5137810;27;837;-53
2021/09/06 07:57:06;;;;;;;;;;;;;;;20.55;58.56;101599.69;5120606;27;1129;-57
2021/09/06 07:59:32;;;;;;;;;;;;;;;20.62;58.90;101597.50;5116070;28;1077;-52
2021/09/06 08:01:57;;;;;;;;;;;;;;;20.99;58.02;101606.50;5117886;28;878;-55
2021/09/06 08:04:23;;;;;;;;;;;;;;;21.05;58.02;101599.81;5134169;27;1104;-42
2021/09/06 08:06:49;;;;;;;;;;;;;;;20.83;58.24;101592.75;5132920;27;1097;-56
2021/09/06 08:09:15;;;;;;;;;;;;;;;20.36;57.48;101605.00;5116746;28;1910;-55
2021/09/06 08:11:45;;;;;;;;;;;;;;;20.04;55.64;101595.09;5116216;28;970;-42
2021/09/06 08:14:14;;;;;;;;;;;;;;;19.58;53.82;101586.78;5124689;27;1339;-43
2021/09/06 08:16:39;;;;;;;;;;;;;;;19.29;52.46;101592.78;5137193;27;1252;-43
2021/09/06 08:19:05;;;;;;;;;;;;;;;19.06;51.71;101592.19;5137017;27;1169;-55
2021/09/06 08:21:31;;;;;;;;;;;;;;;19.01;50.25;101592.16;5137117;27;1141;-44
2021/09/06 08:23:58;;;;;;;;;;;;;;;18.94;49.67;101591.59;5137037;27;1131;-43
2021/09/06 08:26:24;;;;;;;;;;;;;;;18.89;51.61;101584.13;5137121;27;1136;-52
2021/09/06 08:28:49;;;;;;;;;;;;;;;19.41;54.83;101592.56;5136402;27;1147;-42
2021/09/06 08:31:17;;;;;;;;;;;;;;;19.65;56.36;101590.91;5137217;27;1905;-42
2021/09/06 08:33:42;;;;;;;;;;;;;;;20.02;57.20;101599.25;5136605;27;1133;-48
2021/09/06 08:36:09;;;;;;;;;;;;;;;20.16;58.30;101590.13;5119296;27;1241;-43
2021/09/06 08:38:36;;;;;;;;;;;;;;;20.18;59.62;101600.88;5137012;27;1338;-44
2021/09/06 08:41:05;;;;;;;;;;;;;;;20.39;59.44;101596.16;5136860;27;1236;-47
2021/09/06 08:43:32;;;;;;;;;;;;;;;20.84;58.61;101599.91;5132063;27;1535;-53
2021/09/06 08:46:01;;;;;;;;;;;;;;;20.89;58.50;101604.59;5125216;27;895;-55
2021/09/06 08:48:26;;;;;;;;;;;;;;;21.24;57.76;101593.63;5136432;27;1208;-51
2021/09/06 08:50:52;;;;;;;;;;;;;;;21.37;57.77;101593.00;5119383;27;1913;-54
2021/09/06 08:53:18;;;;;;;;;;;;;;;20.87;58.64;101592.16;5136749;27;1397;-43
2021/09/06 08:55:44;;;;;;;;;;;;;;;20.76;57.29;101594.97;5136454;27;1321;-52
2021/09/06 08:58:09;;;;;;;;;;;;;;;20.03;55.46;101581.56;5136605;27;1211;-53
2021/09/06 09:00:35;;;;;;;;;;;;;;;19.70;52.98;101587.34;5135461;27;994;-51
2021/09/06 09:03:23;;;;;;;;;;;;;;;19.44;49.70;101595.59;5131903;27;1293;-45
2021/09/06 09:06:07;;;;;;;;;;;;;;;18.93;48.46;101576.97;5137160;27;609;-53
2021/09/06 09:08:55;;;;;;;;;;;;;;;18.81;47.63;101579.09;5104908;27;1234;-48
2021/09/06 09:11:37;;;;;;;;;;;;;;;18.94;51.55;101580.56;5136252;27;1247;-42
2021/09/06 09:14:21;;;;;;;;;;;;;;;19.43;54.59;101579.31;5120971;27;1684;-43
2021/09/06 09:17:10;;;;;;;;;;;;;;;19.75;56.48;101581.00;5136473;27;1542;-52
2021/09/06 09:20:01;;;;;;;;;;;;;;;19.93;57.79;101582.41;5136951;27;1270;-52
2021/09/06 09:22:59;;;;;;;;;;;;;;;20.32;57.79;101568.00;5104437;28;1589;-52
2021/09/06 09:25:47;;;;;;;;;;;;;;;20.52;58.20;101576.25;5115327;28;822;-44
2021/09/06 09:28:31;;;;;;;;;;;;;;;20.54;58.83;101584.25;5116416;27;1004;-43
2021/09/06 09:31:29;;;;;;;;;;;;;;;20.87;58.45;101572.81;5134359;27;1902;-53
2021/09/06 09:34:29;;;;;;;;;;;;;;;21.10;58.05;101580.44;5113679;27;1103;-53
2021/09/06 09:37:05;;;;;;;;;;;;;;;21.02;58.15;101581.03;5134710;27;1112;-49
2021/09/06 09:39:33;;;;;;;;;;;;;;;21.07;58.08;101585.69;5137113;27;776;-50
2021/09/06 09:42:25;;;;;;;;;;;;;;;20.68;57.61;101578.97;5135616;27;898;-42
2021/09/06 09:44:53;;;;;;;;;;;;;;;20.10;54.81;101577.41;5113530;27;1163;-48
2021/09/06 09:47:49;;;;;;;;;;;;;;;19.73;52.02;101575.75;5125695;27;1522;-43
2021/09/06 09:50:16;;;;;;;;;;;;;;;19.19;50.15;101587.25;5135661;27;1905;-52
2021/09/06 09:52:43;;;;;;;;;;;;;;;18.84;48.98;101569.47;5135624;27;806;-42
2021/09/06 09:55:10;;;;;;;;;;;;;;;18.61;48.06;101585.34;5137185;27;763;-48
2021/09/06 09:57:36;;;;;;;;;;;;;;;18.85;49.39;101574.72;5134922;27;847;-54
2021/09/06 10:00:04;;;;;;;;;;;;;;;19.28;52.89;101577.38;5121322;27;944;-51
2021/09/06 10:02:37;;;;;;;;;;;;;;;19.70;54.76;101576.31;5116072;28;648;-54
2021/09/06 10:05:04;;;;;;;;;;;;;;;19.91;56.42;101579.09;5114761;28;871;-44
2021/09/06 10:07:31;;;;;;;;;;;;;;;20.07;57.33;101586.25;5116581;27;1296;-47
2021/09/06 10:09:57;;;;;;;;;;;;;;;20.39;57.59;101590.63;5124300;27;1972;-54
2021/09/06 10:12:23;;;;;;;;;;;;;;;20.44;58.22;101585.09;5114363;28;783;-48
2021/09/06 10:14:52;;;;;;;;;;;;;;;20.65;58.04;101582.25;5114405;27;1255;-43
2021/09/06 10:17:36;;;;;;;;;;;;;;;20.83;58.05;101580.84;5136291;27;1034;-45
2021/09/06 10:20:11;;;;;;;;;;;;;;;20.71;58.85;101583.94;5136158;27;899;-54
2021/09/06 10:22:42;;;;;;;;;;;;;;;21.18;57.62;101577.09;5137034;27;1569;-56
2021/09/06 10:25:10;;;;;;;;;;;;;;;21.30;57.32;101590.56;5132253;28;959;-43
2021/09/06 10:27:37;;;;;;;;;;;;;;;21.13;57.29;101577.09;5136078;27;766;-55
2021/09/06 10:30:08;;;;;;;;;;;;;;;20.57;56.44;101585.63;5120755;27;1913;-44
2021/09/06 10:32:37;;;;;;;;;;;;;;;20.05;55.21;101582.13;5116067;28;806;-51
2021/09/06 10:35:11;;;;;;;;;;;;;;;19.64;53.65;101591.19;5115499;28;933;-42
2021/09/06 10:37:39;;;;;;;;;;;;;;;19.49;51.81;101586.50;5115954;28;885;-56
2021/09/06 10:40:06;;;;;;;;;;;;;;;19.22;50.78;101592.22;5139154;27;1493;-42
2021/09/06 10:42:34;;;;;;;;;;;;;;;19.02;49.80;101588.31;5132642;27;795;-43
2021/09/06 10:45:01;;;;;;;;;;;;;;;19.10;50.11;101590.53;5131860;27;1025;-45
2021/09/06 10:47:33;;;;;;;;;;;;;;;19.19;50.65;101599.09;5126771;27;1132;-57
2021/09/06 10:50:09;;;;;;;;;;;;;;;19.32;51.66;101595.00;5120642;27;1914;-54
2021/09/06 10:52:35;;;;;;;;;;;;;;;19.36;52.52;101603.56;5142076;27;1157;-44
2021/09/06 10:55:01;;;;;;;;;;;;;;;19.31;53.40;101602.44;5129145;27;1295;-51
2021/09/06 10:57:26;;;;;;;;;;;;;;;19.35;55.22;101601.91;5137834;27;1247;-42
2021/09/06 10:59:53;;;;;;;;;;;;;;;19.69;56.06;101584.88;5126612;27;997;-48
2021/09/06 11:02:19;;;;;;;;;;;;;;;19.88;57.44;101598.97;5119767;28;792;-43
2021/09/06 11:04:47;;;;;;;;;;;;;;;20.10;57.63;101596.75;5125217;27;1147;-56
2021/09/06 11:07:13;;;;;;;;;;;;;;;20.26;57.88;101599.47;5146944;27;1089;-57
2021/09/06 11:09:40;;;;;;;;;;;;;;;20.45;58.19;101600.53;5140443;27;1990;-43
2021/09/06 11:12:07;;;;;;;;;;;;;;;20.46;58.71;101599.44;5139073;27;835;-54
2021/09/06 11:14:33;;;;;;;;;;;;;;;20.65;58.33;101598.84;5128826;27;1062;-43
2021/09/06 11:16:58;;;;;;;;;;;;;;;20.91;58.19;101604.31;5119617;28;795;-55
2021/09/06 11:19:25;;;;;;;;;;;;;;;21.03;58.11;101613.13;5119180;27;799;-48
2021/09/06 11:21:55;;;;;;;;;;;;;;;20.65;58.63;101601.59;5128814;27;1609;-55
2021/09/06 11:24:21;;;;;;;;;;;;;;;20.41;57.39;101599.47;5139641;27;799;-52
2021/09/06 11:26:48;;;;;;;;;;;;;;;20.10;55.10;101598.69;5139725;27;778;-56
2021/09/06 11:29:16;;;;;;;;;;;;;;;19.83;53.46;101597.03;5130473;27;1020;-42
2021/09/06 11:31:47;;;;;;;;;;;;;;;19.51;51.91;101594.50;5119034;28;834;-53
2021/09/06 11:34:14;;;;;;;;;;;;;;;19.31;50.70;101591.44;5118446;28;861;-57
2021/09/06 11:36:39;;;;;;;;;;;;;;;19.01;50.22;101594.91;5118762;28;778;-45
2021/09/06 11:39:08;;;;;;;;;;;;;;;18.86;50.77;101586.56;5119069;28;813;-54
2021/09/06 11:41:37;;;;;;;;;;;;;;;18.94;51.53;101578.66;5118059;28;851;-43
2021/09/06 11:44:03;;;;;;;;;;;;;;;19.25;52.24;101592.53;5118262;27;965;-48
2021/09/06 11:46:29;;;;;;;;;;;;;;;19.37;52.66;101589.50;5119051;28;818;-55
2021/09/06 11:48:54;;;;;;;;;;;;;;;19.34;54.06;101590.06;5124048;27;886;-42
2021/09/06 11:51:21;;;;;;;;;;;;;;;19.50;55.25;101588.13;5139092;27;1909;-46
2021/09/06 11:54:02;;;;;;;;;;;;;;;19.86;56.39;101592.91;5119565;27;1361;-55
2021/09/06 11:56:28;;;;;;;;;;;;;;;20.11;57.24;101598.41;5136853;27;902;-55
2021/09/06 11:58:54;;;;;;;;;;;;;;;20.14;58.02;101600.59;5132249;27;983;-44
2021/09/06 12:01:22;;;;;;;;;;;;;;;20.38;58.05;101597.25;5100116;28;999;-43
2021/09/06 12:03:50;;;;;;;;;;;;;;;20.50;58.37;101594.19;5117559;28;799;-43
2021/09/06 12:06:17;;;;;;;;;;;;;;;20.54;58.69;101592.53;5117096;28;778;-56
2021/09/06 12:08:54;;;;;;;;;;;;;;;20.62;58.92;101594.72;5116835;28;1123;-44
2021/09/06 12:11:33;;;;;;;;;;;;;;;20.63;59.11;101603.81;5117657;28;1930;-46
2021/09/06 12:14:02;;;;;;;;;;;;;;;20.87;58.59;101598.50;5117683;27;949;-43
2021/09/06 12:16:28;;;;;;;;;;;;;;;20.88;58.32;101596.59;5116661;28;843;-54
2021/09/06 12:18:58;;;;;;;;;;;;;;;20.70;57.41;101593.34;5117461;27;807;-42
2021/09/06 12:21:24;;;;;;;;;;;;;;;20.38;55.78;101591.72;5126074;27;1566;-48
2021/09/06 12:24:00;;;;;;;;;;;;;;;19.95;54.17;101585.72;5136539;27;767;-43
2021/09/06 12:26:25;;;;;;;;;;;;;;;19.55;52.75;101581.81;5138111;27;825;-44
2021/09/06 12:29:00;;;;;;;;;;;;;;;19.28;51.62;101580.13;5136381;27;989;-49
2021/09/06 12:31:26;;;;;;;;;;;;;;;19.00;50.72;101584.16;5138464;27;1971;-43
2021/09/06 12:33:51;;;;;;;;;;;;;;;18.96;50.04;101576.44;5136146;27;823;-46
2021/09/06 12:36:17;;;;;;;;;;;;;;;18.89;50.70;101577.81;5138263;27;802;-51
2021/09/06 12:38:42;;;;;;;;;;;;;;;18.94;51.78;101575.03;5137982;27;838;-50
2021/09/06 12:41:08;;;;;;;;;;;;;;;19.08;52.57;101572.63;5138305;27;734;-55
2021/09/06 12:43:33;;;;;;;;;;;;;;;19.00;53.86;101576.75;5134828;27;984;-55
2021/09/06 12:45:59;;;;;;;;;;;;;;;19.11;53.74;101583.94;5117214;28;775;-55
2021/09/06 12:48:25;;;;;;;;;;;;;;;19.23;54.24;101578.16;5117376;28;771;-42
2021/09/06 12:50:51;;;;;;;;;;;;;;;19.48;55.24;101580.13;5117033;28;1977;-56
2021/09/06 12:53:16;;;;;;;;;;;;;;;19.61;56.96;101577.94;5117460;28;830;-58
2021/09/06 12:55:42;;;;;;;;;;;;;;;20.01;57.19;101590.13;5116933;28;912;-56
2021/09/06 12:58:07;;;;;;;;;;;;;;;20.07;57.74;101590.97;5116014;28;807;-53
2021/09/06 13:00:33;;;;;;;;;;;;;;;20.14;58.37;101592.31;5117164;27;1015;-46